Time;durP1;ratioP1;P1;durP2;ratioP2;P2;SDS_P1;SDS_P2;PMS_P1;PMS_P2;Temp;Humidity;BMP_temperature;BMP_pressure;BME280_temperature;BME280_humidity;BME280_pressure;Samples;Min_cycle;Max_cycle;Signal;HPM_P1;HPM_P2
2020/12/20 00:01:46;;;;;;;3.17;1.10;;;20.30;23.40;;;;;;5069395;28;20075;-65
2020/12/20 00:04:16;;;;;;;4.65;1.10;;;20.30;24.30;;;;;;5074147;28;20078;-66
2020/12/20 00:06:47;;;;;;;5.47;1.08;;;20.10;24.20;;;;;;5071225;28;20075;-66
2020/12/20 00:09:20;;;;;;;6.78;1.17;;;20.00;24.30;;;;;;5089842;28;20080;-65
2020/12/20 00:11:50;;;;;;;6.55;1.70;;;20.00;24.60;;;;;;5071312;28;20112;-67
2020/12/20 00:14:29;;;;;;;6.93;1.70;;;19.80;25.10;;;;;;5071476;28;20072;-66
2020/12/20 00:17:08;;;;;;;8.55;1.83;;;19.70;25.70;;;;;;5071871;28;20066;-66
2020/12/20 00:19:37;;;;;;;5.43;2.00;;;19.60;26.50;;;;;;5072101;28;20543;-66
2020/12/20 00:22:09;;;;;;;10.57;2.45;;;19.50;26.40;;;;;;5051129;28;20099;-67
2020/12/20 00:24:37;;;;;;;9.13;4.15;;;19.30;26.70;;;;;;5056126;28;20090;-66
2020/12/20 00:27:06;;;;;;;13.93;4.75;;;19.20;27.60;;;;;;5069790;28;20440;-65
2020/12/20 00:29:37;;;;;;;10.05;4.05;;;19.00;28.30;;;;;;5053067;28;20479;-66
2020/12/20 00:32:05;;;;;;;16.60;4.80;;;18.90;28.30;;;;;;5068725;28;20099;-64
2020/12/20 00:34:32;;;;;;;16.70;4.60;;;18.80;28.30;;;;;;5068345;28;20435;-65
2020/12/20 00:36:59;;;;;;;10.82;3.85;;;18.60;28.70;;;;;;5067562;28;20163;-66
2020/12/20 00:39:26;;;;;;;14.82;4.63;;;18.60;28.60;;;;;;5051081;28;20525;-67
2020/12/20 00:41:55;;;;;;;18.65;4.95;;;18.40;29.20;;;;;;5067128;28;20079;-65
2020/12/20 00:44:23;;;;;;;12.68;5.60;;;18.20;31.10;;;;;;5067245;28;20586;-65
2020/12/20 00:46:50;;;;;;;14.38;6.05;;;18.10;31.10;;;;;;5082036;28;20086;-67
2020/12/20 00:49:17;;;;;;;19.25;7.00;;;18.00;31.90;;;;;;5067694;28;20082;-67
2020/12/20 00:51:44;;;;;;;22.27;9.45;;;17.90;31.20;;;;;;5067518;28;20153;-66
2020/12/20 00:54:10;;;;;;;;;;;17.70;30.40;;;;;;5068404;28;20090;-66
2020/12/20 00:56:37;;;;;;;30.23;11.93;;;17.50;31.60;;;;;;5066875;28;19969;-66
2020/12/20 00:59:04;;;;;;;39.92;13.07;;;17.40;32.40;;;;;;5067356;28;20071;-66
2020/12/20 01:01:30;;;;;;;38.75;11.88;;;17.30;33.10;;;;;;5080712;28;20072;-66
2020/12/20 01:03:57;;;;;;;48.17;12.07;;;17.20;33.50;;;;;;5049319;28;20079;-67
2020/12/20 01:06:25;;;;;;;36.25;11.32;;;17.10;33.70;;;;;;5066734;28;20090;-66
2020/12/20 01:08:52;;;;;;;44.20;11.80;;;17.00;33.40;;;;;;5068258;28;20076;-66
2020/12/20 01:11:22;;;;;;;48.65;12.07;;;16.80;33.60;;;;;;5067650;28;20429;-67
2020/12/20 01:13:50;;;;;;;42.75;11.73;;;16.70;35.80;;;;;;5067389;28;20221;-66
2020/12/20 01:16:18;;;;;;;37.67;10.48;;;16.60;36.10;;;;;;5066794;28;20080;-66
2020/12/20 01:18:45;;;;;;;36.13;10.55;;;16.50;36.90;;;;;;5080847;28;20423;-66
2020/12/20 01:21:11;;;;;;;33.92;10.73;;;16.40;35.90;;;;;;5066432;28;20179;-67
2020/12/20 01:23:38;;;;;;;47.95;15.95;;;16.20;35.90;;;;;;5069094;28;20088;-68
2020/12/20 01:26:05;;;;;;;57.75;21.13;;;16.10;36.10;;;;;;5067767;28;20122;-67
2020/12/20 01:28:33;;;;;;;52.75;20.95;;;16.00;36.80;;;;;;5050519;28;20120;-67
2020/12/20 01:31:00;;;;;;;55.38;21.58;;;15.90;37.00;;;;;;5049637;28;20483;-66
2020/12/20 01:33:28;;;;;;;44.65;18.67;;;15.80;37.90;;;;;;5052029;28;20068;-68
2020/12/20 01:35:55;;;;;;;46.35;18.58;;;15.80;38.70;;;;;;5050741;28;20122;-66
2020/12/20 01:38:21;;;;;;;;;;;15.70;39.20;;;;;;5068391;28;20074;-66
2020/12/20 01:40:54;;;;;;;44.42;13.85;;;15.60;39.70;;;;;;5069190;28;20038;-67
2020/12/20 01:43:21;;;;;;;48.20;11.60;;;15.50;38.90;;;;;;5049217;28;20072;-65
2020/12/20 01:45:48;;;;;;;41.40;10.07;;;15.50;38.20;;;;;;5069919;28;20113;-66
2020/12/20 01:48:15;;;;;;;29.02;10.00;;;15.40;37.40;;;;;;5069401;28;20121;-67
2020/12/20 01:50:44;;;;;;;29.92;9.18;;;15.30;38.50;;;;;;5070130;28;20575;-67
2020/12/20 01:53:12;;;;;;;21.25;9.10;;;15.20;37.90;;;;;;5082898;28;20075;-67
2020/12/20 01:55:46;;;;;;;29.15;9.85;;;15.00;37.40;;;;;;5051643;28;20100;-66
2020/12/20 01:58:12;;;;;;;31.08;9.55;;;15.00;37.80;;;;;;5047296;28;20494;-66
2020/12/20 02:00:39;;;;;;;41.92;12.70;;;14.90;38.80;;;;;;5068766;28;20100;-67
2020/12/20 02:03:05;;;;;;;;;;;14.80;39.20;;;;;;5049866;28;20072;-66
2020/12/20 02:05:31;;;;;;;26.45;10.07;;;14.80;40.00;;;;;;5066614;28;20428;-65
2020/12/20 02:07:59;;;;;;;38.55;10.00;;;14.70;40.50;;;;;;5068122;28;20088;-66
2020/12/20 02:10:26;;;;;;;35.50;10.10;;;14.60;39.50;;;;;;5066714;28;20117;-71
2020/12/20 02:12:52;;;;;;;23.80;8.88;;;14.50;39.50;;;;;;5048741;28;20087;-70
2020/12/20 02:15:18;;;;;;;35.92;10.02;;;14.50;39.90;;;;;;5065045;28;20514;-66
2020/12/20 02:17:45;;;;;;;28.88;9.73;;;14.40;40.70;;;;;;5066747;28;20099;-68
2020/12/20 02:20:11;;;;;;;;;;;14.40;40.50;;;;;;5066503;28;20121;-68
2020/12/20 02:22:38;;;;;;;44.58;13.65;;;14.30;40.20;;;;;;5068651;28;20338;-66
2020/12/20 02:25:04;;;;;;;;;;;14.30;40.10;;;;;;5068810;28;20103;-67
2020/12/20 02:27:30;;;;;;;52.70;15.88;;;14.20;40.00;;;;;;5066071;28;19976;-66
2020/12/20 02:29:57;;;;;;;50.60;21.65;;;14.10;40.60;;;;;;5067785;28;20138;-67
2020/12/20 02:32:23;;;;;;;;;;;14.10;41.40;;;;;;5048809;28;20083;-67
2020/12/20 02:34:49;;;;;;;92.55;45.40;;;14.00;41.00;;;;;;5049699;28;19981;-66
2020/12/20 02:37:19;;;;;;;95.40;46.28;;;14.00;41.70;;;;;;5068958;28;20072;-66
2020/12/20 02:39:48;;;;;;;105.45;50.30;;;14.10;42.50;;;;;;5048994;28;20076;-65
2020/12/20 02:42:15;;;;;;;120.32;54.35;;;13.90;42.80;;;;;;5048117;28;20068;-67
2020/12/20 02:44:41;;;;;;;;;;;13.90;42.50;;;;;;5070203;28;21629;-67
2020/12/20 02:47:10;;;;;;;145.05;63.47;;;13.80;41.80;;;;;;5071539;28;20408;-66
2020/12/20 02:49:36;;;;;;;162.70;65.97;;;13.80;42.30;;;;;;5072409;28;20150;-66
2020/12/20 02:52:04;;;;;;;142.50;62.97;;;13.80;43.80;;;;;;5069407;28;20128;-67
2020/12/20 02:54:31;;;;;;;146.52;58.58;;;13.80;43.40;;;;;;5070271;28;20538;-66
2020/12/20 02:56:59;;;;;;;141.18;55.83;;;13.80;44.00;;;;;;5074397;28;20103;-66
2020/12/20 02:59:25;;;;;;;123.95;50.22;;;13.70;44.00;;;;;;5054163;28;20083;-67
2020/12/20 03:01:52;;;;;;;96.75;39.13;;;13.70;44.40;;;;;;5069918;28;20092;-67
2020/12/20 03:04:19;;;;;;;66.95;27.70;;;13.50;44.30;;;;;;5071601;28;20075;-68
2020/12/20 03:06:46;;;;;;;67.35;25.88;;;13.50;43.50;;;;;;5072452;28;20155;-66
2020/12/20 03:09:12;;;;;;;;;;;13.40;43.40;;;;;;5072459;28;20075;-65
2020/12/20 03:11:39;;;;;;;70.07;25.48;;;13.40;43.70;;;;;;5071767;28;20397;-71
2020/12/20 03:14:05;;;;;;;;;;;13.30;44.20;;;;;;5055588;28;20076;-67
2020/12/20 03:16:31;;;;;;;69.22;26.10;;;13.20;44.40;;;;;;5076911;28;20006;-67
2020/12/20 03:18:57;;;;;;;;;;;13.20;44.60;;;;;;5071789;28;20130;-67
2020/12/20 03:21:24;;;;;;;56.40;22.20;;;13.20;45.30;;;;;;5073526;28;19963;-67
2020/12/20 03:23:50;;;;;;;57.90;21.02;;;13.20;46.00;;;;;;5056839;28;20162;-67
2020/12/20 03:26:17;;;;;;;55.75;18.77;;;13.10;45.90;;;;;;5071427;28;20159;-66
2020/12/20 03:28:43;;;;;;;;;;;13.00;45.50;;;;;;5060652;28;20140;-67
2020/12/20 03:31:09;;;;;;;41.35;14.55;;;13.00;45.50;;;;;;5048171;28;20436;-67
2020/12/20 03:33:36;;;;;;;45.40;14.45;;;12.90;45.60;;;;;;5057752;28;20095;-66
2020/12/20 03:36:03;;;;;;;54.42;13.45;;;12.80;45.80;;;;;;5061506;28;20195;-68
2020/12/20 03:38:29;;;;;;;53.33;13.48;;;12.90;45.50;;;;;;5055281;28;20064;-66
2020/12/20 03:40:55;;;;;;;;;;;12.90;44.90;;;;;;5060426;28;20077;-67
2020/12/20 03:43:22;;;;;;;55.40;14.70;;;12.80;45.80;;;;;;5055609;28;19964;-66
2020/12/20 03:45:48;;;;;;;;;;;12.80;45.70;;;;;;5038929;28;20152;-67
2020/12/20 03:48:15;;;;;;;68.10;16.15;;;12.80;44.80;;;;;;5041341;28;19957;-67
2020/12/20 03:50:41;;;;;;;;;;;12.70;44.60;;;;;;5049008;28;20092;-68
2020/12/20 03:53:08;;;;;;;55.75;17.70;;;12.60;44.40;;;;;;5044302;28;19960;-68
2020/12/20 03:55:34;;;;;;;59.58;17.88;;;12.60;44.50;;;;;;5039176;28;20080;-68
2020/12/20 03:58:01;;;;;;;;;;;12.60;45.10;;;;;;5039013;28;20074;-68
2020/12/20 04:00:28;;;;;;;66.53;19.60;;;12.60;45.90;;;;;;5039314;28;20023;-68
2020/12/20 04:02:55;;;;;;;54.20;19.83;;;12.50;45.80;;;;;;5040318;28;20586;-67
2020/12/20 04:05:21;;;;;;;77.25;21.42;;;12.50;45.40;;;;;;5039175;28;20081;-67
2020/12/20 04:07:47;;;;;;;;;;;12.40;45.30;;;;;;5036952;28;20079;-67
2020/12/20 04:10:15;;;;;;;66.55;22.42;;;12.30;45.20;;;;;;5041220;28;19992;-66
2020/12/20 04:12:42;;;;;;;70.10;23.13;;;12.40;45.30;;;;;;5055427;28;20064;-68
2020/12/20 04:15:08;;;;;;;83.03;24.52;;;12.30;45.70;;;;;;5052543;28;20073;-68
2020/12/20 04:17:35;;;;;;;72.97;24.27;;;12.30;45.90;;;;;;5048201;28;20511;-68
2020/12/20 04:20:01;;;;;;;92.35;25.67;;;12.30;45.90;;;;;;5049285;28;20087;-68
2020/12/20 04:22:27;;;;;;;;;;;12.30;47.00;;;;;;5049923;28;20077;-67
2020/12/20 04:24:54;;;;;;;96.70;27.42;;;12.30;47.10;;;;;;5051656;28;19956;-69
2020/12/20 04:27:20;;;;;;;83.00;28.65;;;12.20;47.10;;;;;;5049542;28;20079;-68
2020/12/20 04:29:47;;;;;;;101.70;30.98;;;12.20;46.80;;;;;;5057809;28;20573;-67
2020/12/20 04:32:17;;;;;;;110.28;33.15;;;12.10;47.30;;;;;;5052290;28;20603;-68
2020/12/20 04:34:44;;;;;;;94.57;32.88;;;12.10;47.20;;;;;;5050289;28;20107;-68
2020/12/20 04:37:10;;;;;;;115.45;37.00;;;12.00;46.90;;;;;;5057055;28;20106;-69
2020/12/20 04:39:37;;;;;;;;;;;12.10;47.30;;;;;;5054164;28;20074;-69
2020/12/20 04:42:03;;;;;;;107.97;35.92;;;12.10;47.40;;;;;;5052163;28;19965;-68
2020/12/20 04:44:30;;;;;;;125.13;39.08;;;12.00;48.30;;;;;;5053099;28;20131;-69
2020/12/20 04:46:58;;;;;;;124.95;38.80;;;12.00;47.80;;;;;;5062074;28;20523;-68
2020/12/20 04:49:29;;;;;;;134.75;42.60;;;11.90;47.50;;;;;;5041388;28;20155;-68
2020/12/20 04:51:59;;;;;;;130.00;40.05;;;11.90;47.80;;;;;;5056955;28;20073;-68
2020/12/20 04:54:26;;;;;;;152.05;41.65;;;11.90;47.50;;;;;;5052610;28;20150;-68
2020/12/20 04:56:53;;;;;;;147.45;44.20;;;11.80;47.30;;;;;;5059925;28;20163;-69
2020/12/20 04:59:19;;;;;;;145.32;43.38;;;11.80;48.40;;;;;;5058152;28;20487;-68
2020/12/20 05:01:45;;;;;;;;;;;11.80;47.90;;;;;;5058248;28;20539;-69
2020/12/20 05:04:12;;;;;;;144.45;43.75;;;11.70;49.00;;;;;;5059481;28;19956;-68
2020/12/20 05:06:38;;;;;;;;;;;11.80;48.60;;;;;;5038902;28;20084;-68
2020/12/20 05:09:09;;;;;;;164.38;47.17;;;11.70;49.00;;;;;;5042449;28;19990;-67
2020/12/20 05:11:43;;;;;;;149.70;49.10;;;11.70;48.80;;;;;;5060559;28;20461;-69
2020/12/20 05:14:14;;;;;;;175.13;49.28;;;11.60;48.70;;;;;;5042159;28;20076;-69
2020/12/20 05:16:41;;;;;;;173.70;47.38;;;11.70;48.50;;;;;;5036017;28;20091;-69
2020/12/20 05:19:15;;;;;;;162.35;49.58;;;11.60;48.80;;;;;;5041874;28;20087;-69
2020/12/20 05:21:44;;;;;;;161.85;47.08;;;11.50;48.70;;;;;;5052822;28;20060;-69
2020/12/20 05:24:31;;;;;;;170.77;50.47;;;11.60;48.70;;;;;;5056484;28;20065;-68
2020/12/20 05:26:59;;;;;;;163.77;51.28;;;11.60;49.40;;;;;;5057172;28;20514;-69
2020/12/20 05:29:28;;;;;;;166.07;52.45;;;11.60;49.20;;;;;;5077702;28;20105;-69
2020/12/20 05:31:55;;;;;;;178.85;56.67;;;11.50;49.50;;;;;;5075311;28;20102;-68
2020/12/20 05:34:22;;;;;;;174.00;56.67;;;11.50;49.20;;;;;;5079079;28;20061;-68
2020/12/20 05:36:48;;;;;;;180.48;59.63;;;11.50;49.30;;;;;;5074173;28;20099;-68
2020/12/20 05:39:16;;;;;;;;;;;11.50;50.20;;;;;;5076705;28;20110;-67
2020/12/20 05:41:44;;;;;;;185.88;61.90;;;11.40;49.30;;;;;;5054657;28;19967;-68
2020/12/20 05:44:19;;;;;;;181.98;63.42;;;11.40;48.70;;;;;;5074052;28;20148;-68
2020/12/20 05:46:47;;;;;;;216.13;70.47;;;11.30;48.40;;;;;;5077723;28;20547;-68
2020/12/20 05:49:20;;;;;;;221.98;69.10;;;11.30;48.20;;;;;;5074728;28;20548;-67
2020/12/20 05:52:06;;;;;;;193.70;73.20;;;11.30;48.80;;;;;;5083197;28;20108;-67
2020/12/20 05:54:38;;;;;;;225.27;79.47;;;11.40;48.80;;;;;;5076217;28;20072;-66
2020/12/20 05:57:15;;;;;;;239.70;77.60;;;11.40;48.40;;;;;;5079483;28;20164;-65
2020/12/20 05:59:42;;;;;;;;;;;11.30;48.70;;;;;;5056155;28;20153;-67
2020/12/20 06:02:10;;;;;;;218.80;79.68;;;11.30;48.10;;;;;;5059382;28;20362;-67
2020/12/20 06:04:38;;;;;;;220.30;76.88;;;11.30;49.80;;;;;;5057106;28;20071;-67
2020/12/20 06:07:09;;;;;;;225.95;78.75;;;11.30;50.50;;;;;;5053245;28;20103;-67
2020/12/20 06:09:55;;;;;;;222.95;77.55;;;11.30;50.60;;;;;;5077303;28;20598;-67
2020/12/20 06:12:30;;;;;;;203.30;71.50;;;11.30;50.40;;;;;;5079662;28;20084;-69
2020/12/20 06:14:58;;;;;;;232.73;76.55;;;11.20;50.20;;;;;;5078083;28;20072;-69
2020/12/20 06:17:26;;;;;;;232.07;80.32;;;11.10;50.40;;;;;;5061544;28;20084;-67
2020/12/20 06:20:00;;;;;;;224.27;81.55;;;11.10;49.70;;;;;;5076715;28;20073;-70
2020/12/20 06:22:36;;;;;;;220.05;77.10;;;11.10;49.70;;;;;;5065875;28;20079;-70
2020/12/20 06:25:08;;;;;;;236.13;79.22;;;11.00;50.50;;;;;;5069099;28;20140;-69
2020/12/20 06:27:36;;;;;;;220.88;81.47;;;11.00;50.40;;;;;;5081894;28;20093;-68
2020/12/20 06:30:07;;;;;;;240.68;80.43;;;11.00;50.30;;;;;;5064253;28;20100;-69
2020/12/20 06:32:39;;;;;;;246.13;84.53;;;11.00;50.60;;;;;;5071281;28;20071;-69
2020/12/20 06:35:21;;;;;;;227.27;83.20;;;11.00;50.40;;;;;;5070820;28;20538;-69
2020/12/20 06:37:48;;;;;;;242.68;80.72;;;10.90;50.30;;;;;;5071626;28;20072;-68
2020/12/20 06:40:20;;;;;;;232.05;82.63;;;11.00;51.60;;;;;;5054711;28;20126;-68
2020/12/20 06:42:48;;;;;;;234.57;81.28;;;11.20;71.40;;;;;;5073208;28;20555;-69
2020/12/20 06:45:18;;;;;;;239.63;81.25;;;10.50;56.60;;;;;;5057965;28;20093;-68
2020/12/20 06:47:49;;;;;;;243.45;81.28;;;10.80;51.40;;;;;;5071481;28;20064;-69
2020/12/20 06:50:38;;;;;;;220.02;79.90;;;10.80;50.80;;;;;;5079278;28;20091;-69
2020/12/20 06:53:07;;;;;;;194.73;72.80;;;;;;;;;;5076243;28;20141;-69
2020/12/20 06:55:34;;;;;;;213.13;74.38;;;10.80;64.80;;;;;;5069003;28;20038;-68
2020/12/20 06:58:04;;;;;;;219.73;71.05;;;;;;;;;;5068115;28;20511;-68
2020/12/20 07:00:46;;;;;;;201.55;66.30;;;;;;;;;;5070802;28;20037;-70
2020/12/20 07:03:38;;;;;;;202.48;69.50;;;11.60;84.20;;;;;;5071731;28;20446;-69
2020/12/20 07:06:07;;;;;;;200.63;70.10;;;10.80;51.40;;;;;;5070750;28;20056;-68
2020/12/20 07:08:37;;;;;;;194.68;67.60;;;10.60;51.40;;;;;;5053791;28;20164;-68
2020/12/20 07:11:08;;;;;;;198.68;66.97;;;10.60;50.70;;;;;;5053384;28;20104;-69
2020/12/20 07:13:42;;;;;;;202.38;67.65;;;10.20;72.50;;;;;;5055289;28;20038;-69
2020/12/20 07:16:10;;;;;;;197.00;64.60;;;10.10;76.80;;;;;;5053343;28;20070;-69
2020/12/20 07:18:53;;;;;;;160.50;62.28;;;10.40;68.10;;;;;;5052346;28;20051;-69
2020/12/20 07:21:20;;;;;;;194.90;67.00;;;10.20;72.70;;;;;;5070329;28;20042;-69
2020/12/20 07:24:11;;;;;;;177.38;66.68;;;10.40;52.90;;;;;;5087496;28;20041;-68
2020/12/20 07:26:38;;;;;;;207.13;74.43;;;10.60;80.00;;;;;;5073828;28;20482;-68
2020/12/20 07:29:06;;;;;;;202.20;70.43;;;10.40;49.80;;;;;;5044987;28;20114;-69
2020/12/20 07:31:34;;;;;;;180.65;69.15;;;10.40;50.00;;;;;;5056637;28;20133;-69
2020/12/20 07:34:01;;;;;;;181.50;61.88;;;10.30;52.40;;;;;;5038939;28;20036;-69
2020/12/20 07:36:28;;;;;;;192.15;64.13;;;11.00;62.40;;;;;;5038922;28;20148;-67
2020/12/20 07:38:55;;;;;;;184.57;62.20;;;10.20;49.30;;;;;;5060092;28;20435;-68
2020/12/20 07:41:24;;;;;;;170.45;61.03;;;10.30;49.80;;;;;;5057576;28;20092;-68
2020/12/20 07:43:52;;;;;;;172.65;59.40;;;10.40;65.70;;;;;;5073580;28;20037;-68
2020/12/20 07:46:20;;;;;;;160.20;59.40;;;10.40;56.20;;;;;;5038628;28;20029;-68
2020/12/20 07:48:47;;;;;;;158.95;57.10;;;10.30;67.50;;;;;;5053349;28;20079;-68
2020/12/20 07:51:19;;;;;;;165.48;58.53;;;10.20;51.60;;;;;;5036181;28;20178;-67
2020/12/20 07:53:55;;;;;;;161.20;56.05;;;9.60;60.30;;;;;;5038462;28;20069;-68
2020/12/20 07:56:22;;;;;;;167.10;55.08;;;10.50;72.50;;;;;;5041550;28;20386;-68
2020/12/20 07:58:49;;;;;;;141.38;53.00;;;;;;;;;;5037145;28;20033;-68
2020/12/20 08:01:16;;;;;;;143.18;49.38;;;10.50;67.80;;;;;;5035999;28;20075;-68
2020/12/20 08:03:43;;;;;;;157.45;50.00;;;10.70;58.90;;;;;;5037810;28;20017;-69
2020/12/20 08:06:10;;;;;;;;;;;10.30;49.70;;;;;;5050924;28;20477;-69
2020/12/20 08:08:38;;;;;;;139.27;46.93;;;10.30;77.90;;;;;;5033078;28;20374;-69
2020/12/20 08:11:26;;;;;;;134.48;45.13;;;10.20;63.60;;;;;;5045680;28;20541;-69
2020/12/20 08:14:03;;;;;;;133.05;44.58;;;10.10;48.20;;;;;;5037930;28;20076;-69
2020/12/20 08:16:36;;;;;;;135.55;45.55;;;10.50;75.00;;;;;;5035252;28;20108;-69
2020/12/20 08:19:04;;;;;;;142.35;43.53;;;10.00;49.00;;;;;;5058322;28;20080;-69
2020/12/20 08:21:44;;;;;;;137.18;45.47;;;9.90;65.70;;;;;;5031929;28;20107;-68
2020/12/20 08:24:12;;;;;;;134.18;43.45;;;10.00;48.70;;;;;;5036622;28;20076;-69
2020/12/20 08:26:40;;;;;;;122.93;42.15;;;10.00;49.10;;;;;;5037297;28;20142;-68
2020/12/20 08:29:07;;;;;;;111.65;42.20;;;9.90;48.00;;;;;;5049009;28;20162;-68
2020/12/20 08:31:34;;;;;;;134.15;41.45;;;9.90;47.80;;;;;;5067706;28;20097;-69
2020/12/20 08:34:12;;;;;;;117.03;40.40;;;9.90;47.30;;;;;;5069537;28;20065;-69
2020/12/20 08:36:43;;;;;;;112.78;40.90;;;10.00;48.10;;;;;;5052734;28;20072;-69
2020/12/20 08:39:10;;;;;;;113.15;39.63;;;10.00;48.20;;;;;;5052999;28;20096;-69
2020/12/20 08:41:36;;;;;;;91.35;37.05;;;10.00;47.10;;;;;;5051315;28;20064;-69
2020/12/20 08:44:10;;;;;;;98.60;35.33;;;10.00;46.30;;;;;;5052706;28;20081;-69
2020/12/20 08:46:42;;;;;;;95.03;32.75;;;9.90;47.10;;;;;;5067571;28;20154;-69
2020/12/20 08:49:15;;;;;;;71.88;28.90;;;10.00;47.00;;;;;;5062052;28;20149;-69
2020/12/20 08:51:43;;;;;;;66.05;24.27;;;10.00;45.50;;;;;;5048140;28;20107;-69
2020/12/20 08:54:24;;;;;;;66.28;20.10;;;10.10;43.30;;;;;;5051155;28;22010;-69
2020/12/20 08:57:02;;;;;;;53.85;18.30;;;10.10;41.90;;;;;;5052459;28;20069;-70
2020/12/20 09:00:02;;;;;;;44.75;17.55;;;10.10;40.70;;;;;;5053016;28;20068;-69
2020/12/20 09:02:29;;;;;;;43.70;17.13;;;10.10;40.60;;;;;;5068093;28;20202;-69
2020/12/20 09:04:55;;;;;;;;;;;10.20;41.20;;;;;;5051368;28;20071;-69
2020/12/20 09:07:50;;;;;;;44.75;17.25;;;10.10;41.00;;;;;;5069922;28;19993;-68
2020/12/20 09:10:30;;;;;;;39.80;15.25;;;10.10;40.60;;;;;;5051161;28;20628;-69
2020/12/20 09:13:05;;;;;;;45.63;16.48;;;10.10;40.40;;;;;;5050664;28;20068;-69
2020/12/20 09:15:39;;;;;;;50.78;17.42;;;10.10;39.50;;;;;;5052546;28;20147;-69
2020/12/20 09:18:14;;;;;;;38.83;14.95;;;10.10;40.20;;;;;;5051250;28;20086;-69
2020/12/20 09:20:43;;;;;;;45.85;16.23;;;10.10;39.20;;;;;;5088890;28;20455;-68
2020/12/20 09:23:20;;;;;;;45.75;15.38;;;10.20;39.80;;;;;;5050750;28;20503;-69
2020/12/20 09:25:47;;;;;;;;;;;10.10;40.60;;;;;;5069164;28;20068;-68
2020/12/20 09:28:20;;;;;;;37.05;13.40;;;10.10;40.80;;;;;;5067421;28;19985;-69
2020/12/20 09:30:49;;;;;;;35.35;12.85;;;10.10;41.30;;;;;;5052067;28;20113;-68
2020/12/20 09:33:31;;;;;;;34.22;11.55;;;10.10;40.50;;;;;;5050942;28;20083;-68
2020/12/20 09:36:06;;;;;;;36.25;11.32;;;10.00;40.40;;;;;;5087565;28;20524;-68
2020/12/20 09:38:44;;;;;;;36.60;10.50;;;10.00;40.10;;;;;;5050427;28;20095;-69
2020/12/20 09:41:13;;;;;;;31.05;10.32;;;10.00;38.50;;;;;;5052272;28;20073;-69
2020/12/20 09:43:40;;;;;;;30.52;10.32;;;9.90;39.00;;;;;;5051407;28;20610;-70
2020/12/20 09:46:09;;;;;;;31.48;10.52;;;9.90;40.00;;;;;;5052254;28;20079;-69
2020/12/20 09:48:35;;;;;;;27.63;9.63;;;9.90;39.50;;;;;;5052134;28;20090;-69
2020/12/20 09:51:02;;;;;;;23.77;9.70;;;9.90;69.20;;;;;;5050910;28;20066;-69
2020/12/20 09:53:30;;;;;;;28.85;10.43;;;9.90;40.50;;;;;;5084367;28;20364;-70
2020/12/20 09:55:56;;;;;;;23.52;9.65;;;9.70;59.40;;;;;;5068753;28;20069;-69
2020/12/20 09:58:23;;;;;;;;;;;7.40;38.60;;;;;;5053334;28;20050;-69
2020/12/20 10:00:49;;;;;;;21.30;7.28;;;9.80;39.50;;;;;;5083150;28;19924;-69
2020/12/20 10:03:15;;;;;;;;;;;9.70;39.40;;;;;;5069819;28;20136;-70
2020/12/20 10:05:44;;;;;;;16.88;6.05;;;9.70;38.90;;;;;;5053084;28;19982;-69
2020/12/20 10:08:14;;;;;;;16.23;6.60;;;9.70;40.40;;;;;;5083035;28;20163;-69
2020/12/20 10:10:40;;;;;;;14.02;5.22;;;9.80;39.50;;;;;;5070124;28;20104;-70
2020/12/20 10:13:07;;;;;;;11.70;5.22;;;9.80;40.40;;;;;;5069292;28;20550;-69
2020/12/20 10:15:33;;;;;;;;;;;9.80;39.30;;;;;;5052827;28;20069;-69
2020/12/20 10:18:03;;;;;;;13.68;3.75;;;9.80;38.80;;;;;;5070024;28;19957;-68
2020/12/20 10:20:31;;;;;;;6.47;2.80;;;9.70;39.40;;;;;;5051380;28;20480;-69
2020/12/20 10:22:59;;;;;;;9.88;2.72;;;9.80;39.50;;;;;;5051379;28;20081;-69
2020/12/20 10:25:25;;;;;;;8.85;1.52;;;9.70;37.90;;;;;;5069579;28;20419;-70
2020/12/20 10:27:55;;;;;;;4.28;1.35;;;9.80;36.20;;;;;;5068670;28;20110;-68
2020/12/20 10:30:22;;;;;;;5.15;1.20;;;9.80;35.30;;;;;;5051666;28;20097;-69
2020/12/20 10:32:49;;;;;;;9.75;1.52;;;9.90;35.10;;;;;;5067636;28;20171;-70
2020/12/20 10:35:17;;;;;;;3.65;1.20;;;9.90;35.20;;;;;;5051337;28;20118;-69
2020/12/20 10:37:44;;;;;;;7.15;1.30;;;10.00;36.40;;;;;;5072182;28;20088;-70
2020/12/20 10:40:11;;;;;;;3.20;1.30;;;10.00;36.20;;;;;;5050939;28;20072;-70
2020/12/20 10:42:38;;;;;;;10.07;1.50;;;10.00;37.40;;;;;;5068078;28;20080;-68
2020/12/20 10:45:05;;;;;;;5.63;1.20;;;9.90;37.20;;;;;;5051798;28;20757;-69
2020/12/20 10:47:31;;;;;;;5.05;1.15;;;9.90;37.10;;;;;;5051756;28;20077;-68
2020/12/20 10:49:57;;;;;;;;;;;9.90;36.40;;;;;;5068877;28;20085;-70
2020/12/20 10:52:24;;;;;;;8.20;1.35;;;9.90;34.80;;;;;;5082202;28;20048;-69
2020/12/20 10:54:50;;;;;;;2.10;1.13;;;9.90;34.90;;;;;;5067247;28;20516;-69
2020/12/20 10:57:16;;;;;;;;;;;9.80;35.00;;;;;;5068742;28;20075;-69
2020/12/20 10:59:43;;;;;;;2.70;1.35;;;9.90;35.10;;;;;;5068075;28;19960;-69
2020/12/20 11:02:09;;;;;;;7.10;1.08;;;9.90;34.90;;;;;;5069105;28;20130;-68
2020/12/20 11:04:36;;;;;;;;;;;9.90;34.70;;;;;;5071415;28;20158;-68
2020/12/20 11:07:03;;;;;;;3.22;1.30;;;10.00;35.10;;;;;;5080747;28;19961;-69
2020/12/20 11:09:30;;;;;;;3.90;1.45;;;10.00;36.10;;;;;;5053327;28;20145;-69
2020/12/20 11:11:57;;;;;;;4.88;1.70;;;9.90;36.30;;;;;;5073787;28;20100;-69
2020/12/20 11:14:24;;;;;;;4.97;1.73;;;9.80;35.90;;;;;;5052720;28;20077;-69
2020/12/20 11:16:54;;;;;;;6.85;1.85;;;9.70;36.20;;;;;;5072742;28;20465;-69
2020/12/20 11:19:21;;;;;;;4.90;1.90;;;9.70;37.10;;;;;;5071301;28;20246;-68
2020/12/20 11:21:52;;;;;;;2.92;1.60;;;9.70;36.90;;;;;;5053266;28;20539;-69
2020/12/20 11:24:20;;;;;;;6.43;1.63;;;9.70;38.00;;;;;;5072666;28;20073;-70
2020/12/20 11:26:47;;;;;;;7.32;2.08;;;9.70;38.90;;;;;;5053714;28;20589;-70
2020/12/20 11:29:15;;;;;;;5.70;1.80;;;9.70;39.50;;;;;;5069972;28;20105;-69
2020/12/20 11:31:42;;;;;;;9.52;1.98;;;9.70;39.00;;;;;;5050558;28;20608;-69
2020/12/20 11:34:09;;;;;;;4.80;1.77;;;9.60;38.00;;;;;;5071783;28;20127;-70
2020/12/20 11:36:36;;;;;;;7.20;1.88;;;9.50;37.90;;;;;;5070245;28;20073;-69
2020/12/20 11:39:05;;;;;;;3.78;1.92;;;9.50;38.30;;;;;;5070755;28;20065;-69
2020/12/20 11:41:31;;;;;;;13.70;2.22;;;9.50;39.30;;;;;;5071825;28;20591;-69
2020/12/20 11:43:59;;;;;;;12.07;2.40;;;9.40;38.50;;;;;;5052819;28;20552;-69
2020/12/20 11:46:26;;;;;;;14.63;3.25;;;9.40;38.90;;;;;;5070947;28;20077;-68
2020/12/20 11:48:53;;;;;;;12.20;3.13;;;9.50;39.00;;;;;;5070673;28;20069;-69
2020/12/20 11:51:21;;;;;;;7.68;2.20;;;9.50;39.00;;;;;;5070996;28;20146;-68
2020/12/20 11:53:48;;;;;;;10.95;2.08;;;9.40;38.60;;;;;;5052316;28;20083;-72
2020/12/20 11:56:16;;;;;;;12.13;2.10;;;9.40;38.50;;;;;;5053638;28;20131;-68
2020/12/20 11:58:43;;;;;;;9.48;2.58;;;9.40;38.50;;;;;;5086651;28;20073;-68
2020/12/20 12:01:10;;;;;;;8.13;2.40;;;9.40;38.20;;;;;;5071119;28;20077;-69
2020/12/20 12:03:37;;;;;;;7.75;1.95;;;9.30;38.10;;;;;;5052353;28;20073;-68
2020/12/20 12:06:05;;;;;;;9.05;2.28;;;9.20;38.30;;;;;;5069323;28;20073;-68
2020/12/20 12:08:33;;;;;;;5.60;2.95;;;9.20;37.90;;;;;;5051434;28;20083;-68
2020/12/20 12:10:59;;;;;;;3.47;2.20;;;9.20;38.10;;;;;;5070550;28;20142;-69
2020/12/20 12:13:26;;;;;;;11.85;2.38;;;9.20;38.80;;;;;;5070359;28;20065;-69
2020/12/20 12:15:52;;;;;;;6.65;2.60;;;9.10;38.80;;;;;;5070357;28;20100;-69
2020/12/20 12:18:19;;;;;;;6.57;2.47;;;9.00;38.80;;;;;;5068650;28;20073;-68
2020/12/20 12:20:45;;;;;;;;;;;9.00;38.80;;;;;;5070350;28;20073;-69
2020/12/20 12:23:12;;;;;;;8.63;2.80;;;8.90;38.50;;;;;;5070077;28;19963;-68
2020/12/20 12:25:38;;;;;;;;;;;8.80;38.60;;;;;;5070613;28;20596;-68
2020/12/20 12:28:04;;;;;;;12.43;3.53;;;;;;;;;;5070590;28;19981;-68
2020/12/20 12:30:30;;;;;;;;;;;;;;;;;;5068163;28;20155;-69
2020/12/20 12:32:57;;;;;;;11.07;3.83;;;8.80;61.00;;;;;;5073678;28;19916;-69
2020/12/20 12:35:23;;;;;;;;;;;;;;;;;;5068479;28;20389;-69
2020/12/20 12:37:50;;;;;;;15.80;3.15;;;8.70;77.90;;;;;;5070896;28;19972;-69
2020/12/20 12:40:18;;;;;;;12.43;3.40;;;8.60;40.60;;;;;;5069330;28;20065;-69
2020/12/20 12:42:45;;;;;;;8.77;3.95;;;8.70;40.70;;;;;;5069964;28;20198;-69
2020/12/20 12:45:14;;;;;;;10.05;3.00;;;8.60;41.10;;;;;;5053361;28;20081;-68
2020/12/20 12:47:41;;;;;;;8.10;3.78;;;8.50;40.50;;;;;;5070343;28;20512;-69
2020/12/20 12:50:08;;;;;;;9.20;3.33;;;8.50;40.40;;;;;;5071043;28;20124;-69
2020/12/20 12:52:34;;;;;;;11.20;3.60;;;8.50;41.00;;;;;;5069632;28;20414;-69